デリー の空港の天気 - METARとTAF

インディラ・ガンディー国際空港 ( VIDP / DEL ) - インド デリー
飛行場実況気象(Metar)
観測時間01/23 11:00 IST (01/23 05:30 UTC)
風向・風速南南西 5m/s 瞬間風速10m/s
視程1200m
天気現象煙霧
全天の4割程度の雲 雲底高度 910m
少しの雲 雲底高度 1070m
全天を覆う雲 雲底高度 2440m
気温15℃
湿度63%
気圧1013hPa
METARVIDP 230530Z 21010G20KT 1200 R28/P2000 R29/P2000 HZ SCT030 FEW035CB OVC080 15/08 Q1013 TEMPO 0800 TSRA
過去の天気等 Google飛行場航空写真 Wunderground天気予報

過去48時間のMETAR

飛行場予報(TAF)
発表時間: 1/23 10:30 IST (1/23 05:00 UTC)
予報対象時間: 23日11時 IST ~ 24日17時 IST
風向・風速南東 3m/s 瞬間風速 5m/s
視程1,200m
天気現象煙霧
全天の4割程度の雲 雲底高度 910m
少しの積乱雲 雲底高度 1,070m
全天を覆う雲 雲底高度 2,440m
23日12時 IST ~ 23日20時 IST に一時的に
風向・風速東南東 8m/s 瞬間風速 13m/s
視程1,000m
天気現象弱い雷雨
23日20時 IST ~ 23日22時 IST に徐々に
風向・風速北 2m/s
視程500m
天気現象もや 弱い雨
少しの雲 雲底高度 1,070m
全天の4割程度の雲 雲底高度 3,050m
24日5時 IST ~ 24日7時 IST に徐々に
風向・風速西 2m/s
視程200m
天気現象
24日9時 IST ~ 24日11時 IST に徐々に
風向・風速西北西 4m/s
視程1,500m
天気現象煙霧 煙
TAF VIDP 230500Z 2306/2412 13005G10KT 1200 HZ SCT030 FEW035CB OVC080
TEMPO 2307/2315 12015G25KT 1000 -TSRA
BECMG 2315/2317 36004KT 0500 BR -RA FEW035 SCT100
BECMG 2400/2402 27003KT 0200 FG
BECMG 2404/2406 29008KT 1500 HZ FU